Time;durP1;ratioP1;P1;durP2;ratioP2;P2;SDS_P1;SDS_P2;PMS_P1;PMS_P2;Temp;Humidity;BMP_temperature;BMP_pressure;BME280_temperature;BME280_humidity;BME280_pressure;Samples;Min_cycle;Max_cycle;Signal;HPM_P1;HPM_P2
2021/07/21 05:02:03;;;;;;;14.52;13.23;;;;;;;24.93;68.47;94799.50;5369655;23;20063;-74
2021/07/21 05:04:29;;;;;;;15.60;12.52;;;;;;;26.76;61.82;94814.81;5009595;28;20041;-76
2021/07/21 05:06:54;;;;;;;14.35;12.90;;;;;;;26.82;61.58;94805.75;5029969;28;20481;-75
2021/07/21 05:09:20;;;;;;;13.93;12.55;;;;;;;28.71;56.02;94805.31;5047539;28;20115;-79
2021/07/21 05:11:45;;;;;;;13.32;12.23;;;;;;;29.21;53.68;94819.81;5013713;28;20094;-74
2021/07/21 05:14:11;;;;;;;13.60;12.32;;;;;;;29.52;52.42;94824.69;5030445;28;20511;-76
2021/07/21 05:16:36;;;;;;;14.88;12.02;;;;;;;29.67;53.07;94830.56;5029266;28;20126;-75
2021/07/21 05:19:02;;;;;;;12.40;11.30;;;;;;;29.71;51.02;94826.22;5030305;28;20319;-76
2021/07/21 05:21:31;;;;;;;11.80;10.73;;;;;;;29.95;49.65;94833.31;5021052;28;20018;-75
2021/07/21 05:23:56;;;;;;;12.60;11.35;;;;;;;28.66;51.53;94839.25;5024549;28;20410;-82
2021/07/21 05:26:22;;;;;;;11.55;10.55;;;;;;;30.61;47.75;94836.34;5029794;28;20035;-75
2021/07/21 05:28:47;;;;;;;14.02;10.40;;;;;;;30.94;48.30;94842.34;5018639;28;20101;-76
2021/07/21 05:31:13;;;;;;;11.85;10.55;;;;;;;30.63;46.98;94836.81;5067993;28;20024;-74
2021/07/21 05:33:38;;;;;;;11.32;10.30;;;;;;;30.33;48.36;94835.53;5039039;28;20468;-76
2021/07/21 05:36:04;;;;;;;11.30;10.38;;;;;;;30.03;47.81;94840.66;5013782;28;20091;-75
2021/07/21 05:38:30;;;;;;;11.77;10.73;;;;;;;30.09;47.13;94845.59;5012692;28;20433;-83
2021/07/21 05:40:56;;;;;;;12.15;11.02;;;;;;;30.92;45.61;94841.06;5014070;28;20025;-76
2021/07/21 05:43:25;;;;;;;12.20;11.00;;;;;;;30.48;46.41;94845.16;5030260;28;20075;-86
2021/07/21 05:45:50;;;;;;;11.80;10.70;;;;;;;31.10;44.88;94845.50;5030371;28;20032;-83
2021/07/21 05:48:16;;;;;;;10.95;10.18;;;;;;;30.67;45.29;94853.88;5013432;28;20028;-76
2021/07/21 05:50:41;;;;;;;11.70;10.80;;;;;;;27.84;50.36;94845.72;5029581;28;20025;-75
2021/07/21 05:53:07;;;;;;;12.35;11.15;;;;;;;28.58;48.58;94847.84;5032352;28;20040;-74
2021/07/21 05:55:32;;;;;;;11.50;10.40;;;;;;;31.66;43.38;94855.75;5049156;28;20034;-76
2021/07/21 05:57:58;;;;;;;10.98;10.02;;;;;;;32.79;40.28;94855.97;5050390;28;20024;-83
2021/07/21 06:00:23;;;;;;;11.25;10.07;;;;;;;31.61;42.13;94850.47;5048344;28;20039;-83
2021/07/21 06:02:49;;;;;;;13.07;10.45;;;;;;;31.93;42.16;94852.09;5031804;28;20116;-76
2021/07/21 06:05:14;;;;;;;11.93;10.93;;;;;;;32.57;40.16;94845.34;5050167;28;20051;-81
2021/07/21 06:07:40;;;;;;;12.10;10.98;;;;;;;32.96;39.08;94855.22;5006723;28;20033;-82
2021/07/21 06:10:06;;;;;;;12.63;10.75;;;;;;;28.61;47.43;94858.72;5013519;28;20035;-79
2021/07/21 06:12:32;;;;;;;13.30;12.20;;;;;;;28.23;49.83;94863.19;5051667;28;20028;-83
2021/07/21 06:14:58;;;;;;;12.48;11.32;;;;;;;31.47;44.20;94865.81;5053155;28;20029;-76
2021/07/21 06:17:24;;;;;;;15.10;11.25;;;;;;;33.09;40.57;94857.00;5052837;28;20085;-78
2021/07/21 06:19:49;;;;;;;12.63;11.23;;;;;;;29.48;47.75;94864.50;5029478;28;20529;-77
2021/07/21 06:22:18;;;;;;;12.52;11.52;;;;;;;29.58;47.35;94863.56;5030781;28;20025;-76
2021/07/21 06:24:46;;;;;;;13.60;10.93;;;;;;;31.80;41.41;94870.63;5050886;28;20035;-77
2021/07/21 06:27:12;;;;;;;12.85;11.57;;;;;;;28.87;47.99;94863.78;5032245;28;20064;-82
2021/07/21 06:29:37;;;;;;;12.02;11.05;;;;;;;27.46;49.93;94869.44;5063832;28;20041;-81
2021/07/21 06:32:03;;;;;;;12.35;11.32;;;;;;;30.63;42.81;94870.81;5024507;28;20055;-79
2021/07/21 06:34:28;;;;;;;12.93;11.48;;;;;;;31.73;41.42;94872.94;5032144;28;20508;-79
2021/07/21 06:36:54;;;;;;;12.40;11.27;;;;;;;33.32;39.17;94864.63;5016573;28;20482;-76
2021/07/21 06:39:19;;;;;;;12.00;10.80;;;;;;;33.26;38.65;94865.09;5058661;28;20033;-77
2021/07/21 06:41:45;;;;;;;12.02;11.07;;;;;;;33.97;37.21;94865.53;5045993;28;20040;-84
2021/07/21 06:44:10;;;;;;;11.10;10.30;;;;;;;33.85;38.20;94864.28;5036853;28;20086;-81
2021/07/21 06:46:36;;;;;;;12.23;11.20;;;;;;;32.88;38.74;94864.81;5033388;28;20036;-73
2021/07/21 06:49:01;;;;;;;12.68;11.40;;;;;;;33.40;37.23;94860.31;5050629;28;20127;-79
2021/07/21 06:51:26;;;;;;;11.55;10.68;;;;;;;34.45;35.85;94863.34;5050828;28;20051;-81
2021/07/21 06:53:52;;;;;;;11.43;10.57;;;;;;;35.34;34.65;94862.22;5032484;28;20054;-76
2021/07/21 06:56:17;;;;;;;12.80;11.52;;;;;;;28.96;44.91;94864.75;5050892;28;20029;-78
2021/07/21 06:58:43;;;;;;;11.45;10.57;;;;;;;31.99;40.09;94866.94;5034198;28;20025;-83
2021/07/21 07:01:08;;;;;;;13.30;11.05;;;;;;;31.75;40.27;94865.41;5015041;28;20073;-84
2021/07/21 07:03:34;;;;;;;12.88;11.52;;;;;;;28.96;45.02;94857.50;5050967;28;20059;-76
2021/07/21 07:06:00;;;;;;;11.95;10.77;;;;;;;29.11;46.27;94859.97;5050906;28;20024;-82
2021/07/21 07:08:26;;;;;;;12.80;11.52;;;;;;;28.20;47.08;94844.28;5050465;28;20029;-82
2021/07/21 07:10:51;;;;;;;12.45;11.25;;;;;;;29.22;44.92;94853.41;5017275;28;20047;-77
2021/07/21 07:13:17;;;;;;;12.00;10.95;;;;;;;29.04;46.15;94859.53;5057439;28;20024;-88
2021/07/21 07:15:43;;;;;;;12.45;11.30;;;;;;;29.12;45.30;94852.78;5049118;28;20509;-78
2021/07/21 07:18:14;;;;;;;11.25;10.10;;;;;;;33.43;37.93;94861.63;5030086;28;20025;-82
2021/07/21 07:20:41;;;;;;;12.15;10.82;;;;;;;33.34;36.97;94861.59;5048397;28;20033;-77
2021/07/21 07:23:07;;;;;;;11.33;10.27;;;;;;;34.59;34.34;94858.50;5024500;28;20447;-76
2021/07/21 07:25:32;;;;;;;10.73;9.75;;;;;;;32.93;38.10;94856.63;5029005;28;20294;-77
2021/07/21 07:27:58;;;;;;;10.38;9.48;;;;;;;30.17;43.65;94857.50;5023700;28;20020;-76
2021/07/21 07:30:24;;;;;;;10.85;9.57;;;;;;;28.01;47.51;94862.03;5023584;28;20566;-79
2021/07/21 07:32:49;;;;;;;11.90;10.00;;;;;;;28.57;45.48;94867.59;5047359;28;20509;-74
2021/07/21 07:35:15;;;;;;;11.82;10.73;;;;;;;29.13;45.83;94867.69;5045518;28;20021;-81
2021/07/21 07:37:41;;;;;;;12.80;11.38;;;;;;;28.53;45.54;94856.72;5040257;28;20029;-80
2021/07/21 07:40:07;;;;;;;11.65;10.75;;;;;;;28.65;45.79;94853.63;5011392;28;20032;-74
2021/07/21 07:42:32;;;;;;;11.40;10.32;;;;;;;28.78;46.21;94856.41;5012678;28;20025;-79
2021/07/21 07:44:58;;;;;;;14.25;11.02;;;;;;;28.04;46.58;94840.97;5043727;28;20508;-75
2021/07/21 07:47:23;;;;;;;13.13;11.18;;;;;;;28.09;46.33;94864.94;5029338;28;20086;-81
2021/07/21 07:49:50;;;;;;;13.75;10.73;;;;;;;27.80;46.91;94848.16;5046567;28;20482;-76
2021/07/21 07:52:16;;;;;;;13.65;11.88;;;;;;;27.52;47.68;94856.88;5027264;28;20024;-80
2021/07/21 07:54:41;;;;;;;18.42;15.82;;;;;;;27.06;49.25;94856.41;5030295;28;20029;-82
2021/07/21 07:57:07;;;;;;;17.83;14.60;;;;;;;28.04;47.49;94858.81;5001237;28;20065;-77
2021/07/21 07:59:32;;;;;;;14.18;12.68;;;;;;;28.32;47.10;94843.91;5047453;28;20047;-75
2021/07/21 08:01:58;;;;;;;12.25;10.70;;;;;;;28.51;46.35;94845.53;5018320;28;20048;-79
2021/07/21 08:04:24;;;;;;;13.20;10.82;;;;;;;28.26;46.58;94843.16;5021787;28;20463;-80
2021/07/21 08:06:49;;;;;;;13.70;11.10;;;;;;;28.04;46.54;94843.63;4999671;28;20036;-81
2021/07/21 08:09:15;;;;;;;11.23;10.20;;;;;;;27.96;46.77;94846.94;5029636;28;20037;-79
2021/07/21 08:11:45;;;;;;;11.98;10.73;;;;;;;28.09;47.27;94848.16;5047344;28;20029;-77
2021/07/21 08:14:14;;;;;;;15.90;10.32;;;;;;;27.92;47.14;94829.13;5039511;28;20041;-74
2021/07/21 08:16:40;;;;;;;12.25;11.10;;;;;;;28.26;48.02;94848.50;5046402;28;20132;-75
2021/07/21 08:19:06;;;;;;;17.10;10.55;;;;;;;27.75;47.03;94845.50;5024251;28;20565;-82
2021/07/21 08:21:31;;;;;;;12.48;11.10;;;;;;;27.19;46.11;94842.50;5019126;28;20025;-77
2021/07/21 08:23:57;;;;;;;12.30;9.20;;;;;;;27.79;46.78;94854.53;5017733;28;20086;-76
2021/07/21 08:26:22;;;;;;;13.68;10.23;;;;;;;27.91;48.63;94854.16;5027190;28;20102;-75
2021/07/21 08:28:48;;;;;;;11.20;10.20;;;;;;;28.25;47.54;94847.72;5041818;28;20513;-79
2021/07/21 08:31:13;;;;;;;12.15;10.25;;;;;;;27.48;44.89;94846.03;4992025;28;20033;-74
2021/07/21 08:33:40;;;;;;;11.77;9.68;;;;;;;28.08;45.67;94839.38;5036434;28;20029;-82
2021/07/21 08:36:05;;;;;;;13.27;9.82;;;;;;;27.83;45.73;94842.25;5003571;28;20508;-79
2021/07/21 08:38:31;;;;;;;12.30;9.73;;;;;;;27.72;44.97;94841.56;5041815;28;20063;-77
2021/07/21 08:40:56;;;;;;;13.45;10.27;;;;;;;27.38;46.21;94848.75;5032567;28;20114;-75
2021/07/21 08:43:22;;;;;;;10.60;9.57;;;;;;;27.26;45.80;94837.63;5029505;28;20043;-80
2021/07/21 08:45:48;;;;;;;10.35;9.40;;;;;;;27.49;45.25;94834.28;5012836;28;20036;-76
2021/07/21 08:48:13;;;;;;;11.70;10.10;;;;;;;27.85;45.13;94837.44;5012939;28;20036;-75
2021/07/21 08:50:41;;;;;;;28.02;11.95;;;;;;;27.77;46.25;94836.16;5030883;28;20040;-79
2021/07/21 08:53:06;;;;;;;14.65;9.73;;;;;;;27.71;45.32;94834.63;5011516;28;20562;-77
2021/07/21 08:55:32;;;;;;;11.80;9.57;;;;;;;28.40;43.15;94825.41;5046605;28;20017;-76
2021/07/21 08:57:57;;;;;;;9.70;8.80;;;;;;;28.05;42.47;94823.94;5050382;28;20036;-80
2021/07/21 09:00:23;;;;;;;10.00;9.13;;;;;;;27.94;45.28;94821.63;5032102;28;20432;-77
2021/07/21 09:02:48;;;;;;;12.65;9.57;;;;;;;27.73;45.11;94824.50;5025922;28;20128;-76
2021/07/21 09:05:15;;;;;;;10.07;9.15;;;;;;;27.86;45.63;94828.38;4998856;28;20022;-82
2021/07/21 09:07:41;;;;;;;10.65;8.95;;;;;;;28.11;43.06;94816.69;5006995;28;20431;-81
2021/07/21 09:10:11;;;;;;;9.88;8.95;;;;;;;27.58;43.93;94808.66;4980626;28;20045;-77
2021/07/21 09:12:38;;;;;;;10.98;9.15;;;;;;;28.41;43.86;94808.34;5007884;28;20026;-78
2021/07/21 09:15:04;;;;;;;9.30;8.50;;;;;;;27.88;45.11;94820.09;5003974;28;20036;-76
2021/07/21 09:17:31;;;;;;;11.15;8.40;;;;;;;28.33;44.41;94810.84;5001449;28;20030;-83
2021/07/21 09:19:56;;;;;;;10.38;9.10;;;;;;;27.82;44.34;94813.22;4979442;28;20100;-75
2021/07/21 09:22:34;;;;;;;11.63;8.85;;;;;;;27.65;44.58;94803.81;5005349;28;20037;-78
2021/07/21 09:25:12;;;;;;;9.90;9.10;;;;;;;27.73;44.17;94821.84;5004520;28;20111;-80
2021/07/21 09:27:39;;;;;;;10.32;9.40;;;;;;;27.74;44.14;94815.44;4981716;28;20034;-78
2021/07/21 09:30:06;;;;;;;10.65;8.63;;;;;;;27.55;44.74;94811.88;4985450;28;20037;-81
2021/07/21 09:32:31;;;;;;;11.02;8.65;;;;;;;27.46;44.24;94821.53;4989828;28;20022;-76
2021/07/21 09:34:56;;;;;;;8.95;8.15;;;;;;;27.32;43.10;94817.91;4976987;28;20415;-78
2021/07/21 09:37:22;;;;;;;11.52;8.70;;;;;;;27.33;46.01;94808.84;4988202;28;20034;-80
2021/07/21 10:41:36;;;;;;;12.40;9.02;;;;;;;27.69;44.89;94778.22;5004534;28;20657;-79
2021/07/21 10:47:24;;;;;;;12.65;9.93;;;;;;;27.47;43.67;94769.13;5005227;28;20044;-78
2021/07/21 10:49:57;;;;;;;12.40;8.77;;;;;;;27.19;44.40;94773.31;4975752;28;20032;-78
2021/07/21 10:55:02;;;;;;;10.15;8.98;;;;;;;27.35;43.97;94761.47;4974032;28;20042;-79
2021/07/21 11:00:14;;;;;;;9.77;8.80;;;;;;;27.21;42.81;94760.53;4975481;28;20423;-76
2021/07/21 11:02:40;;;;;;;10.27;8.80;;;;;;;27.34;43.46;94753.75;4969484;28;20038;-79
2021/07/21 11:05:08;;;;;;;13.05;9.35;;;;;;;27.00;42.98;94765.19;4977072;28;20044;-79
2021/07/21 11:07:50;;;;;;;9.50;8.60;;;;;;;27.48;44.63;94760.06;4984152;28;20380;-78
2021/07/21 11:10:15;;;;;;;9.48;8.35;;;;;;;27.21;42.67;94757.88;5009358;28;20637;-79
2021/07/21 11:12:49;;;;;;;10.02;9.02;;;;;;;27.09;42.45;94755.59;4977898;28;20079;-78
2021/07/21 11:15:34;;;;;;;27.48;24.52;;;;;;;27.03;44.36;94753.25;4967788;28;20030;-76
2021/07/21 11:18:24;;;;;;;9.70;8.50;;;;;;;27.07;43.06;94746.28;4989594;28;20061;-77
2021/07/21 11:20:59;;;;;;;12.32;8.43;;;;;;;27.24;42.82;94752.78;4983461;28;20034;-75
2021/07/21 11:23:53;;;;;;;9.43;8.63;;;;;;;27.22;42.54;94762.13;5014729;28;20041;-76
2021/07/21 11:26:34;;;;;;;9.40;8.55;;;;;;;26.78;42.34;94748.06;4985849;28;20030;-77
2021/07/21 11:29:24;;;;;;;11.05;7.95;;;;;;;26.91;42.38;94755.44;4959648;28;20117;-76
2021/07/21 11:31:50;;;;;;;12.15;8.63;;;;;;;27.02;42.95;94754.31;4983046;28;20022;-76
2021/07/21 11:34:31;;;;;;;12.05;8.98;;;;;;;26.84;42.17;94760.28;4984647;28;20021;-76
2021/07/21 11:37:06;;;;;;;14.75;9.13;;;;;;;26.99;43.80;94753.00;4979880;28;20050;-78
2021/07/21 11:39:53;;;;;;;11.45;9.05;;;;;;;27.35;43.59;94758.03;4973896;28;20027;-76
2021/07/21 11:42:34;;;;;;;9.48;8.55;;;;;;;27.51;42.35;94744.31;4986219;28;20487;-76
2021/07/21 11:45:05;;;;;;;9.90;8.90;;;;;;;26.93;40.48;94748.78;4986272;28;20019;-76
2021/07/21 11:47:36;;;;;;;9.35;8.48;;;;;;;27.02;42.96;94762.28;4988970;28;20038;-75
2021/07/21 11:50:06;;;;;;;11.98;9.32;;;;;;;26.92;42.63;94763.16;4971464;28;20027;-77
2021/07/21 11:59:17;;;;;;;10.40;8.40;;;;;;;27.26;43.24;94752.50;4986658;28;20436;-76
2021/07/21 12:01:43;;;;;;;9.82;8.38;;;;;;;27.00;42.74;94753.78;4956382;28;20027;-77
2021/07/21 12:04:09;;;;;;;10.60;8.77;;;;;;;26.86;43.31;94744.84;4970130;28;20034;-77
2021/07/21 12:06:41;;;;;;;10.82;8.55;;;;;;;26.66;42.86;94743.88;4958644;28;20402;-77
2021/07/21 12:09:07;;;;;;;9.27;8.38;;;;;;;26.68;42.28;94749.72;4992000;28;20040;-77
2021/07/21 12:11:32;;;;;;;12.52;8.20;;;;;;;26.88;42.88;94759.44;4974562;28;20026;-77
2021/07/21 12:14:01;;;;;;;9.25;8.35;;;;;;;26.83;43.05;94769.31;4963349;28;20050;-76
2021/07/21 12:16:37;;;;;;;8.75;8.05;;;;;;;26.84;43.48;94773.59;4988235;28;20026;-77
2021/07/21 12:19:04;;;;;;;10.27;8.05;;;;;;;26.53;42.58;94763.09;4988313;28;20042;-76
2021/07/21 12:21:33;;;;;;;10.68;8.05;;;;;;;26.62;43.81;94760.66;4954805;28;20411;-79
2021/07/21 12:24:03;;;;;;;11.07;8.30;;;;;;;26.64;43.93;94756.66;4966747;28;20447;-77
2021/07/21 12:26:44;;;;;;;9.27;8.48;;;;;;;26.81;43.32;94766.16;4987096;28;20042;-77
2021/07/21 12:29:10;;;;;;;9.27;7.97;;;;;;;26.73;41.75;94762.19;4979936;28;20114;-76
2021/07/21 12:31:36;;;;;;;9.50;7.97;;;;;;;26.63;40.91;94765.69;4971253;28;20054;-76
2021/07/21 12:34:18;;;;;;;12.05;8.38;;;;;;;26.55;41.42;94763.59;4966653;28;20066;-76
2021/07/21 12:36:47;;;;;;;8.77;8.07;;;;;;;26.54;42.43;94751.41;4970702;28;20420;-78
2021/07/21 12:39:14;;;;;;;8.80;8.10;;;;;;;26.50;42.94;94758.34;4989125;28;20025;-77
2021/07/21 12:41:41;;;;;;;8.70;8.00;;;;;;;26.64;41.67;94761.97;5006806;28;20029;-78
2021/07/21 12:44:16;;;;;;;9.32;8.43;;;;;;;26.52;43.18;94769.47;4982971;28;20038;-77
2021/07/21 12:46:43;;;;;;;11.30;8.63;;;;;;;26.65;42.98;94768.88;4982555;28;20031;-77
2021/07/21 12:49:08;;;;;;;8.75;7.38;;;;;;;26.33;42.40;94776.47;4978997;28;20153;-75
2021/07/21 12:51:35;;;;;;;9.88;8.98;;;;;;;26.45;42.74;94771.66;4983380;28;20026;-76
2021/07/21 12:54:00;;;;;;;12.18;7.90;;;;;;;26.57;43.49;94772.13;4969784;28;20519;-76
2021/07/21 12:56:26;;;;;;;9.95;8.77;;;;;;;26.37;44.61;94769.56;4999968;28;20022;-75
2021/07/21 12:59:08;;;;;;;9.35;8.43;;;;;;;26.59;43.63;94763.84;5002019;28;20041;-76
2021/07/21 13:01:33;;;;;;;9.85;8.95;;;;;;;26.26;43.33;94776.00;4988826;28;20035;-80
2021/07/21 13:03:59;;;;;;;10.43;9.55;;;;;;;26.23;44.65;94773.91;4970671;28;20057;-79
2021/07/21 13:06:24;;;;;;;8.73;8.02;;;;;;;26.02;43.07;94770.47;4999566;28;20034;-80
2021/07/21 13:08:50;;;;;;;10.93;8.35;;;;;;;26.38;43.23;94784.44;4981940;28;20062;-78
2021/07/21 13:11:15;;;;;;;14.23;8.43;;;;;;;26.14;43.29;94770.97;4982696;28;21620;-79
2021/07/21 13:17:12;;;;;;;8.93;7.70;;;;;;;26.08;42.66;94765.94;4972687;28;20129;-79
2021/07/21 13:33:14;;;;;;;9.77;9.02;;;;;;;25.69;44.30;94779.84;4989055;28;20048;-75
2021/07/21 13:35:39;;;;;;;10.65;9.15;;;;;;;25.99;43.62;94783.50;5010508;28;20677;-79
2021/07/21 13:38:04;;;;;;;8.95;7.65;;;;;;;25.73;43.79;94774.00;4986545;28;20050;-79
2021/07/21 13:40:30;;;;;;;9.38;8.55;;;;;;;25.51;44.63;94785.75;4996728;28;20025;-78
2021/07/21 13:43:26;;;;;;;9.00;8.30;;;;;;;25.64;43.99;94785.19;4984103;28;20133;-79
2021/07/21 13:45:52;;;;;;;9.25;8.40;;;;;;;25.47;45.21;94778.53;4971892;28;20430;-78
2021/07/21 13:48:25;;;;;;;9.25;8.40;;;;;;;25.63;43.41;94777.47;4971082;28;20038;-77
2021/07/21 13:51:07;;;;;;;16.33;8.20;;;;;;;25.56;44.85;94777.75;5004834;28;20030;-79
2021/07/21 13:53:32;;;;;;;9.85;8.95;;;;;;;25.66;45.47;94780.41;5002528;28;20129;-79
2021/07/21 13:55:58;;;;;;;9.00;7.93;;;;;;;25.61;43.66;94769.81;4985404;28;20555;-77
2021/07/21 13:58:23;;;;;;;9.13;8.00;;;;;;;25.49;43.78;94779.91;5001442;28;20502;-78
2021/07/21 14:00:49;;;;;;;8.80;7.95;;;;;;;25.57;42.56;94768.75;5005751;28;20439;-77
2021/07/21 14:03:21;;;;;;;8.63;7.93;;;;;;;25.41;43.25;94772.44;5005119;28;20088;-80
2021/07/21 14:05:47;;;;;;;12.57;11.38;;;;;;;25.54;45.52;94779.09;5000152;28;20511;-77
2021/07/21 14:08:13;;;;;;;24.95;21.55;;;;;;;25.46;44.18;94776.97;4969907;28;20117;-79
2021/07/21 14:10:38;;;;;;;25.40;22.55;;;;;;;25.48;44.05;94788.09;4990132;28;20026;-76
2021/07/21 14:13:04;;;;;;;49.78;44.92;;;;;;;25.22;43.12;94784.66;4988696;28;20022;-77
2021/07/21 14:15:29;;;;;;;182.85;164.23;;;;;;;25.07;43.50;94774.88;5006213;28;20030;-78
2021/07/21 14:17:54;;;;;;;45.70;40.95;;;;;;;25.31;44.26;94769.81;4972662;28;20054;-79
2021/07/21 14:20:20;;;;;;;13.18;12.15;;;;;;;25.46;44.59;94783.03;5003823;28;20403;-77
2021/07/21 14:22:45;;;;;;;12.55;11.45;;;;;;;25.14;43.82;94785.22;5004897;28;20025;-76
2021/07/21 14:25:12;;;;;;;9.07;8.27;;;;;;;25.10;45.63;94784.94;5004831;28;20434;-77
2021/07/21 14:27:38;;;;;;;14.93;11.25;;;;;;;25.20;44.32;94786.81;5006363;28;20022;-78
2021/07/21 14:30:07;;;;;;;19.45;16.75;;;;;;;24.90;44.26;94787.56;4984743;28;20045;-76
2021/07/21 14:32:33;;;;;;;30.65;27.65;;;;;;;25.08;44.33;94791.53;4989277;28;20412;-77
2021/07/21 14:34:58;;;;;;;35.05;31.33;;;;;;;25.05;43.78;94794.72;5009188;28;20081;-78
2021/07/21 14:37:24;;;;;;;31.63;25.88;;;;;;;24.96;43.06;94777.75;5009943;28;20049;-78
2021/07/21 14:39:49;;;;;;;15.82;14.27;;;;;;;24.93;43.59;94799.50;4983150;28;20042;-80
2021/07/21 14:42:15;;;;;;;11.40;10.25;;;;;;;24.89;45.89;94785.16;5004453;28;20037;-79
2021/07/21 14:44:41;;;;;;;26.73;19.90;;;;;;;24.83;45.68;94780.94;4996240;28;20062;-80
2021/07/21 14:47:08;;;;;;;11.77;10.55;;;;;;;25.10;44.62;94794.75;5008932;28;20028;-78
2021/07/21 14:49:34;;;;;;;21.05;18.92;;;;;;;24.74;43.98;94785.13;5008641;28;20040;-81
2021/07/21 14:51:59;;;;;;;17.92;16.10;;;;;;;24.87;44.89;94782.81;4954730;28;20030;-79
2021/07/21 14:54:25;;;;;;;11.93;10.82;;;;;;;24.71;44.86;94785.66;4991257;28;20021;-78
2021/07/21 14:56:50;;;;;;;61.20;51.20;;;;;;;25.00;45.14;94795.53;5007739;28;20390;-79
2021/07/21 14:59:16;;;;;;;13.25;11.95;;;;;;;24.85;45.34;94781.47;4979824;28;20510;-77
2021/07/21 15:01:41;;;;;;;16.08;14.60;;;;;;;24.89;44.38;94791.28;5002382;28;20022;-77
2021/07/21 15:04:07;;;;;;;20.13;18.23;;;;;;;24.93;44.92;94795.00;5007278;28;20069;-77
2021/07/21 15:06:32;;;;;;;30.48;27.50;;;;;;;24.74;44.81;94790.44;4970072;28;20037;-78
2021/07/21 15:09:01;;;;;;;440.70;388.77;;;;;;;24.53;45.16;94792.25;4991683;28;20038;-80
2021/07/21 15:11:28;;;;;;;27.30;21.00;;;;;;;24.54;45.07;94777.94;5005494;28;20060;-78
2021/07/21 15:13:53;;;;;;;35.45;29.35;;;;;;;24.44;44.92;94791.94;4990595;28;20038;-79
2021/07/21 15:16:18;;;;;;;27.40;16.77;;;;;;;24.50;45.45;94782.94;4964350;28;20511;-79
2021/07/21 15:18:44;;;;;;;15.63;14.23;;;;;;;24.45;45.02;94782.94;5003351;28;20034;-80
2021/07/21 15:21:10;;;;;;;16.45;14.88;;;;;;;24.37;45.52;94785.31;4978112;28;20014;-75
2021/07/21 15:23:36;;;;;;;11.23;8.27;;;;;;;24.42;45.59;94775.53;4988840;28;20041;-76
2021/07/21 15:26:01;;;;;;;10.50;8.60;;;;;;;24.27;45.96;94777.34;4971288;28;20026;-75
2021/07/21 15:28:29;;;;;;;10.68;9.35;;;;;;;24.38;44.10;94795.63;4986962;28;20043;-76
2021/07/21 15:58:12;;;;;;;14.80;7.97;;;;;;;23.93;46.45;94790.94;4993910;28;20064;-75
2021/07/21 16:00:38;;;;;;;7.93;7.25;;;;;;;23.79;45.87;94795.06;4966090;28;21061;-75
2021/07/21 16:10:10;;;;;;;8.32;7.43;;;;;;;23.73;47.05;94795.31;4988380;28;20045;-77
2021/07/21 16:12:36;;;;;;;9.55;7.65;;;;;;;23.70;46.89;94801.91;4965870;28;20038;-78
2021/07/21 16:15:03;;;;;;;10.88;7.25;;;;;;;23.73;46.98;94797.97;4963674;28;20089;-75
2021/07/21 16:17:28;;;;;;;10.27;7.10;;;;;;;23.76;46.28;94802.75;4958237;28;20055;-76
2021/07/21 16:19:54;;;;;;;7.97;7.32;;;;;;;23.89;46.92;94799.66;4949056;28;20050;-76
2021/07/21 16:22:19;;;;;;;7.63;6.95;;;;;;;23.88;46.32;94813.94;4944753;28;20041;-76
2021/07/21 16:24:44;;;;;;;8.13;6.80;;;;;;;23.78;46.89;94811.22;4981781;28;20440;-76
2021/07/21 16:27:10;;;;;;;7.45;6.75;;;;;;;23.76;46.74;94794.81;4963209;28;20058;-77
2021/07/21 16:29:35;;;;;;;8.70;7.82;;;;;;;23.60;46.70;94810.56;4962230;28;20034;-77
2021/07/21 16:32:01;;;;;;;8.57;7.05;;;;;;;23.50;47.57;94815.03;4958246;28;20562;-79
2021/07/21 16:34:26;;;;;;;7.85;7.18;;;;;;;23.47;48.24;94811.00;4949868;28;20045;-79
2021/07/21 16:36:52;;;;;;;7.75;7.03;;;;;;;23.49;48.22;94806.28;4970580;28;20472;-76
2021/07/21 16:39:17;;;;;;;8.32;7.63;;;;;;;23.41;49.10;94805.94;4969818;28;20538;-80
2021/07/21 16:41:43;;;;;;;8.00;7.18;;;;;;;23.38;48.57;94803.78;4954949;28;20037;-75
2021/07/21 16:44:08;;;;;;;8.30;7.53;;;;;;;23.47;48.32;94820.81;4954281;28;20038;-78
2021/07/21 16:46:34;;;;;;;9.07;7.07;;;;;;;23.31;48.89;94811.91;4969046;28;20042;-78
2021/07/21 16:49:00;;;;;;;7.75;6.97;;;;;;;23.34;49.11;94824.63;4970004;28;20029;-75
2021/07/21 16:51:25;;;;;;;8.52;7.72;;;;;;;23.11;49.60;94830.28;4959075;28;20058;-77
2021/07/21 16:53:51;;;;;;;8.00;7.30;;;;;;;23.26;48.48;94830.41;4970131;28;20038;-77
2021/07/21 16:56:16;;;;;;;8.80;7.90;;;;;;;22.95;50.16;94825.91;4954076;28;20030;-76
2021/07/21 16:58:41;;;;;;;7.97;7.38;;;;;;;23.08;49.60;94844.00;4970479;28;20873;-79
2021/07/21 17:01:07;;;;;;;8.32;7.57;;;;;;;22.97;49.68;94845.72;4982174;28;20030;-78
2021/07/21 17:03:33;;;;;;;8.43;7.43;;;;;;;22.84;49.98;94840.84;4952339;28;20432;-77
2021/07/21 17:06:00;;;;;;;9.35;8.38;;;;;;;22.71;49.81;94840.44;4950490;28;20514;-77
2021/07/21 17:08:25;;;;;;;8.88;8.18;;;;;;;22.60;49.52;94840.28;4963177;28;20029;-77
2021/07/21 17:10:51;;;;;;;7.55;6.90;;;;;;;22.53;50.21;94826.50;4966707;28;20031;-79
2021/07/21 17:13:17;;;;;;;8.48;7.55;;;;;;;22.41;51.37;94835.63;4969172;28;20030;-80
2021/07/21 17:15:42;;;;;;;8.20;7.47;;;;;;;22.37;51.28;94840.59;4969660;28;20066;-81
2021/07/21 17:18:08;;;;;;;9.95;8.02;;;;;;;22.21;52.35;94830.09;4953997;28;20050;-82
2021/07/21 17:20:44;;;;;;;12.75;11.52;;;;;;;22.21;51.57;94841.44;4948778;28;20432;-84
2021/07/21 17:23:13;;;;;;;18.30;16.40;;;;;;;22.01;53.49;94839.34;4954233;28;20268;-83
2021/07/21 17:25:39;;;;;;;;;;;;;;;21.96;53.07;94849.81;4934820;28;20038;-80
2021/07/21 17:28:07;;;;;;;8.00;7.30;;;;;;;21.81;53.55;94840.88;4961137;28;19918;-82
2021/07/21 17:30:32;;;;;;;8.35;7.55;;;;;;;21.66;53.93;94848.56;4962763;28;20034;-81
2021/07/21 17:32:58;;;;;;;8.77;7.90;;;;;;;21.57;54.39;94840.28;4982667;28;20034;-80
2021/07/21 17:35:23;;;;;;;8.57;7.82;;;;;;;21.39;55.17;94851.84;4960756;28;20023;-81
2021/07/21 17:37:49;;;;;;;8.00;7.20;;;;;;;21.32;56.23;94860.97;4969131;28;20045;-80
2021/07/21 17:40:14;;;;;;;8.25;7.55;;;;;;;21.24;56.35;94859.53;4964616;28;20034;-78
2021/07/21 17:42:40;;;;;;;9.23;8.43;;;;;;;21.03;56.36;94839.09;4982087;28;20144;-78
2021/07/21 17:45:06;;;;;;;9.57;8.63;;;;;;;21.05;57.39;94860.75;4967149;28;20035;-81
2021/07/21 17:47:31;;;;;;;8.98;8.18;;;;;;;20.96;57.08;94864.81;4941681;28;20046;-83
2021/07/21 17:49:57;;;;;;;10.07;7.03;;;;;;;20.85;57.90;94868.28;4974994;28;20538;-80
2021/07/21 17:52:23;;;;;;;8.80;8.00;;;;;;;20.77;57.82;94871.31;4958593;28;20486;-82
2021/07/21 17:54:48;;;;;;;10.35;7.43;;;;;;;20.79;57.69;94877.94;4947599;28;20621;-82
2021/07/21 17:57:13;;;;;;;8.85;8.05;;;;;;;20.73;58.16;94878.06;4966657;28;20037;-82
2021/07/21 17:59:39;;;;;;;8.20;7.38;;;;;;;20.59;58.96;94882.00;4973155;28;20116;-83
2021/07/21 18:02:05;;;;;;;8.95;8.05;;;;;;;20.42;59.58;94874.06;4983769;28;20105;-81
2021/07/21 18:04:30;;;;;;;11.75;7.75;;;;;;;20.31;60.83;94880.94;4985477;28;20036;-80
2021/07/21 18:06:56;;;;;;;9.13;8.27;;;;;;;20.35;59.79;94889.19;4985963;28;20022;-77
2021/07/21 18:09:21;;;;;;;9.20;8.30;;;;;;;20.29;60.21;94895.38;4988790;28;20094;-79
2021/07/21 18:11:47;;;;;;;9.52;8.70;;;;;;;20.13;61.44;94899.47;5001949;28;20811;-79
2021/07/21 18:14:12;;;;;;;8.88;8.18;;;;;;;20.09;61.07;94895.72;4970034;28;20021;-81
2021/07/21 18:16:38;;;;;;;9.60;8.52;;;;;;;19.91;60.91;94901.09;5000397;28;20038;-79
2021/07/21 18:19:03;;;;;;;10.60;9.13;;;;;;;19.79;62.67;94903.72;4970256;28;20033;-78
2021/07/21 18:21:29;;;;;;;8.80;8.07;;;;;;;19.78;62.30;94910.00;5007463;28;20025;-79
2021/07/21 18:23:55;;;;;;;9.20;8.30;;;;;;;19.74;62.70;94921.22;5001730;28;20547;-83
2021/07/21 18:26:21;;;;;;;11.32;8.27;;;;;;;19.64;62.11;94913.09;4991544;28;20033;-86
2021/07/21 18:28:46;;;;;;;10.65;8.98;;;;;;;19.70;62.32;94922.69;4990201;28;20060;-83
2021/07/21 18:31:12;;;;;;;9.40;8.50;;;;;;;19.46;62.56;94913.97;4951810;28;21660;-84
2021/07/21 18:33:37;;;;;;;10.45;8.90;;;;;;;19.57;62.11;94928.16;4986998;28;20414;-83